sensor_id;sensor_type;location;lat;lon;timestamp;P1;durP1;ratioP1;P2;durP2;ratioP2
65853;SDS011;52627;48.838;2.402;2023-10-08T04:23:01;16.50;;;9.20;;
65853;SDS011;52627;48.838;2.402;2023-10-08T04:35:00;14.60;;;9.40;;
65853;SDS011;52627;48.838;2.402;2023-10-08T04:38:15;15.20;;;9.60;;
65853;SDS011;52627;48.838;2.402;2023-10-08T08:36:43;14.00;;;9.30;;
65853;SDS011;52627;48.838;2.402;2023-10-08T09:23:46;14.40;;;8.60;;
65853;SDS011;52627;48.838;2.402;2023-10-08T09:26:18;13.70;;;8.50;;
65853;SDS011;52627;48.838;2.402;2023-10-08T09:28:46;12.90;;;8.50;;
65853;SDS011;52627;48.838;2.402;2023-10-08T09:31:14;16.40;;;9.10;;
65853;SDS011;52627;48.838;2.402;2023-10-08T09:33:41;13.00;;;8.40;;
65853;SDS011;52627;48.838;2.402;2023-10-08T09:36:09;15.20;;;8.50;;
65853;SDS011;52627;48.838;2.402;2023-10-08T09:38:45;14.60;;;8.40;;
65853;SDS011;52627;48.838;2.402;2023-10-08T09:41:15;11.60;;;7.80;;
65853;SDS011;52627;48.838;2.402;2023-10-08T09:43:42;13.40;;;7.70;;
65853;SDS011;52627;48.838;2.402;2023-10-08T09:46:15;14.50;;;7.60;;
65853;SDS011;52627;48.838;2.402;2023-10-08T09:48:51;10.40;;;7.10;;
65853;SDS011;52627;48.838;2.402;2023-10-08T09:51:20;15.30;;;7.50;;
65853;SDS011;52627;48.838;2.402;2023-10-08T10:02:33;12.20;;;7.80;;
65853;SDS011;52627;48.838;2.402;2023-10-08T10:05:01;11.60;;;7.10;;
65853;SDS011;52627;48.838;2.402;2023-10-08T10:07:29;12.80;;;7.80;;
65853;SDS011;52627;48.838;2.402;2023-10-08T10:09:56;13.30;;;8.40;;
65853;SDS011;52627;48.838;2.402;2023-10-08T10:12:26;15.40;;;8.10;;
65853;SDS011;52627;48.838;2.402;2023-10-08T10:14:56;13.80;;;7.50;;
65853;SDS011;52627;48.838;2.402;2023-10-08T10:17:28;12.10;;;7.20;;
65853;SDS011;52627;48.838;2.402;2023-10-08T10:20:11;13.10;;;7.70;;
65853;SDS011;52627;48.838;2.402;2023-10-08T10:22:43;14.10;;;7.70;;
65853;SDS011;52627;48.838;2.402;2023-10-08T10:25:16;14.80;;;7.40;;
65853;SDS011;52627;48.838;2.402;2023-10-08T10:30:22;9.20;;;5.50;;
65853;SDS011;52627;48.838;2.402;2023-10-08T10:32:52;10.90;;;5.90;;
65853;SDS011;52627;48.838;2.402;2023-10-08T10:35:20;11.30;;;5.50;;
65853;SDS011;52627;48.838;2.402;2023-10-08T10:37:48;11.10;;;5.00;;
65853;SDS011;52627;48.838;2.402;2023-10-08T10:40:22;7.10;;;5.30;;
65853;SDS011;52627;48.838;2.402;2023-10-08T10:43:00;9.00;;;5.40;;
65853;SDS011;52627;48.838;2.402;2023-10-08T10:45:28;8.20;;;5.00;;
65853;SDS011;52627;48.838;2.402;2023-10-08T10:48:09;8.50;;;5.10;;
65853;SDS011;52627;48.838;2.402;2023-10-08T10:50:46;10.00;;;5.00;;
65853;SDS011;52627;48.838;2.402;2023-10-08T10:56:36;7.90;;;3.90;;
65853;SDS011;52627;48.838;2.402;2023-10-08T10:59:10;8.80;;;4.20;;
65853;SDS011;52627;48.838;2.402;2023-10-08T11:01:50;9.10;;;4.90;;
65853;SDS011;52627;48.838;2.402;2023-10-08T11:04:32;10.90;;;4.70;;
65853;SDS011;52627;48.838;2.402;2023-10-08T11:07:16;7.90;;;4.10;;
65853;SDS011;52627;48.838;2.402;2023-10-08T11:09:47;8.30;;;4.40;;
65853;SDS011;52627;48.838;2.402;2023-10-08T11:12:15;8.50;;;4.00;;
65853;SDS011;52627;48.838;2.402;2023-10-08T11:14:50;8.00;;;4.20;;
65853;SDS011;52627;48.838;2.402;2023-10-08T11:17:25;9.00;;;5.10;;
65853;SDS011;52627;48.838;2.402;2023-10-08T11:19:56;8.10;;;4.40;;
65853;SDS011;52627;48.838;2.402;2023-10-08T11:22:40;8.30;;;4.00;;
65853;SDS011;52627;48.838;2.402;2023-10-08T11:25:22;8.20;;;4.10;;
65853;SDS011;52627;48.838;2.402;2023-10-08T11:27:54;9.20;;;5.30;;
65853;SDS011;52627;48.838;2.402;2023-10-08T11:30:29;11.80;;;4.90;;
65853;SDS011;52627;48.838;2.402;2023-10-08T11:33:02;9.20;;;4.60;;
65853;SDS011;52627;48.838;2.402;2023-10-08T11:35:33;7.50;;;4.50;;
65853;SDS011;52627;48.838;2.402;2023-10-08T11:38:01;9.50;;;4.70;;
65853;SDS011;52627;48.838;2.402;2023-10-08T11:40:30;7.50;;;4.60;;
65853;SDS011;52627;48.838;2.402;2023-10-08T11:43:16;11.50;;;4.60;;
65853;SDS011;52627;48.838;2.402;2023-10-08T11:45:44;8.50;;;4.80;;
65853;SDS011;52627;48.838;2.402;2023-10-08T11:48:18;8.60;;;4.70;;
65853;SDS011;52627;48.838;2.402;2023-10-08T11:50:53;7.50;;;4.30;;
65853;SDS011;52627;48.838;2.402;2023-10-08T11:53:20;9.50;;;4.30;;
65853;SDS011;52627;48.838;2.402;2023-10-08T11:55:48;7.50;;;3.90;;
65853;SDS011;52627;48.838;2.402;2023-10-08T11:58:16;8.30;;;4.20;;
65853;SDS011;52627;48.838;2.402;2023-10-08T12:00:47;8.10;;;4.10;;
65853;SDS011;52627;48.838;2.402;2023-10-08T12:03:19;8.70;;;4.80;;
65853;SDS011;52627;48.838;2.402;2023-10-08T12:05:48;7.70;;;4.20;;
65853;SDS011;52627;48.838;2.402;2023-10-08T12:08:19;9.40;;;4.80;;
65853;SDS011;52627;48.838;2.402;2023-10-08T12:10:50;8.80;;;4.30;;
65853;SDS011;52627;48.838;2.402;2023-10-08T12:13:22;9.60;;;4.30;;
65853;SDS011;52627;48.838;2.402;2023-10-08T12:15:54;8.70;;;4.60;;
65853;SDS011;52627;48.838;2.402;2023-10-08T12:18:33;9.30;;;5.10;;
65853;SDS011;52627;48.838;2.402;2023-10-08T12:21:08;9.80;;;5.00;;
65853;SDS011;52627;48.838;2.402;2023-10-08T12:23:42;8.60;;;4.30;;
65853;SDS011;52627;48.838;2.402;2023-10-08T12:26:14;9.40;;;4.50;;
65853;SDS011;52627;48.838;2.402;2023-10-08T12:28:47;8.50;;;4.70;;
65853;SDS011;52627;48.838;2.402;2023-10-08T12:31:17;8.20;;;4.90;;
65853;SDS011;52627;48.838;2.402;2023-10-08T12:33:56;9.40;;;3.60;;
65853;SDS011;52627;48.838;2.402;2023-10-08T12:36:27;7.40;;;3.90;;
65853;SDS011;52627;48.838;2.402;2023-10-08T12:39:00;7.50;;;3.70;;
65853;SDS011;52627;48.838;2.402;2023-10-08T12:41:35;9.70;;;4.60;;
65853;SDS011;52627;48.838;2.402;2023-10-08T12:44:06;11.50;;;5.70;;
65853;SDS011;52627;48.838;2.402;2023-10-08T12:46:37;8.30;;;4.20;;
65853;SDS011;52627;48.838;2.402;2023-10-08T12:49:04;7.50;;;3.70;;
65853;SDS011;52627;48.838;2.402;2023-10-08T12:51:34;7.60;;;3.90;;
65853;SDS011;52627;48.838;2.402;2023-10-08T12:54:03;7.60;;;4.30;;
65853;SDS011;52627;48.838;2.402;2023-10-08T12:56:39;8.20;;;4.30;;
65853;SDS011;52627;48.838;2.402;2023-10-08T12:59:13;8.90;;;4.40;;
65853;SDS011;52627;48.838;2.402;2023-10-08T13:01:52;8.90;;;4.00;;
65853;SDS011;52627;48.838;2.402;2023-10-08T13:04:23;9.20;;;4.00;;
65853;SDS011;52627;48.838;2.402;2023-10-08T13:06:57;9.60;;;3.70;;
65853;SDS011;52627;48.838;2.402;2023-10-08T13:09:29;6.80;;;3.10;;
65853;SDS011;52627;48.838;2.402;2023-10-08T13:12:04;6.30;;;3.20;;
65853;SDS011;52627;48.838;2.402;2023-10-08T13:14:32;8.20;;;3.80;;
65853;SDS011;52627;48.838;2.402;2023-10-08T13:17:03;7.20;;;3.30;;
65853;SDS011;52627;48.838;2.402;2023-10-08T13:19:30;6.70;;;3.20;;
65853;SDS011;52627;48.838;2.402;2023-10-08T13:24:34;6.00;;;3.80;;
65853;SDS011;52627;48.838;2.402;2023-10-08T13:27:03;6.80;;;3.20;;
65853;SDS011;52627;48.838;2.402;2023-10-08T13:29:34;6.50;;;3.00;;
65853;SDS011;52627;48.838;2.402;2023-10-08T13:32:02;5.60;;;3.20;;
65853;SDS011;52627;48.838;2.402;2023-10-08T13:34:31;8.20;;;3.50;;
65853;SDS011;52627;48.838;2.402;2023-10-08T13:36:59;6.60;;;3.60;;
65853;SDS011;52627;48.838;2.402;2023-10-08T13:39:26;7.70;;;3.20;;
65853;SDS011;52627;48.838;2.402;2023-10-08T13:41:54;8.00;;;3.10;;
65853;SDS011;52627;48.838;2.402;2023-10-08T13:44:24;6.40;;;2.80;;
65853;SDS011;52627;48.838;2.402;2023-10-08T13:46:58;10.00;;;3.30;;
65853;SDS011;52627;48.838;2.402;2023-10-08T13:49:27;11.10;;;3.20;;
65853;SDS011;52627;48.838;2.402;2023-10-08T13:51:56;8.10;;;3.40;;
65853;SDS011;52627;48.838;2.402;2023-10-08T13:54:24;8.70;;;3.30;;
65853;SDS011;52627;48.838;2.402;2023-10-08T13:56:58;6.40;;;2.80;;
65853;SDS011;52627;48.838;2.402;2023-10-08T13:59:28;9.40;;;3.00;;
65853;SDS011;52627;48.838;2.402;2023-10-08T14:04:29;9.50;;;2.80;;
65853;SDS011;52627;48.838;2.402;2023-10-08T14:06:58;9.00;;;2.70;;
65853;SDS011;52627;48.838;2.402;2023-10-08T14:09:26;6.50;;;2.40;;
65853;SDS011;52627;48.838;2.402;2023-10-08T14:12:05;4.20;;;2.30;;
65853;SDS011;52627;48.838;2.402;2023-10-08T14:14:38;6.00;;;2.50;;
65853;SDS011;52627;48.838;2.402;2023-10-08T14:17:11;5.90;;;2.30;;
65853;SDS011;52627;48.838;2.402;2023-10-08T14:20:05;6.70;;;2.60;;
65853;SDS011;52627;48.838;2.402;2023-10-08T14:22:40;5.70;;;2.70;;
65853;SDS011;52627;48.838;2.402;2023-10-08T14:25:09;6.70;;;3.50;;
65853;SDS011;52627;48.838;2.402;2023-10-08T14:27:39;7.20;;;3.30;;
65853;SDS011;52627;48.838;2.402;2023-10-08T14:30:07;7.00;;;2.80;;
65853;SDS011;52627;48.838;2.402;2023-10-08T14:32:42;6.60;;;2.80;;
65853;SDS011;52627;48.838;2.402;2023-10-08T14:38:00;6.00;;;2.80;;
65853;SDS011;52627;48.838;2.402;2023-10-08T14:40:47;8.20;;;3.00;;
65853;SDS011;52627;48.838;2.402;2023-10-08T14:43:33;7.30;;;2.80;;
65853;SDS011;52627;48.838;2.402;2023-10-08T14:46:02;8.50;;;2.70;;
65853;SDS011;52627;48.838;2.402;2023-10-08T14:48:36;7.10;;;2.60;;
65853;SDS011;52627;48.838;2.402;2023-10-08T14:51:04;8.90;;;2.90;;
65853;SDS011;52627;48.838;2.402;2023-10-08T14:53:34;7.70;;;2.70;;
65853;SDS011;52627;48.838;2.402;2023-10-08T14:58:32;4.40;;;2.50;;
65853;SDS011;52627;48.838;2.402;2023-10-08T15:01:00;5.60;;;2.70;;
65853;SDS011;52627;48.838;2.402;2023-10-08T15:03:28;4.80;;;2.50;;
65853;SDS011;52627;48.838;2.402;2023-10-08T15:05:56;7.20;;;3.40;;
65853;SDS011;52627;48.838;2.402;2023-10-08T15:08:24;7.60;;;2.50;;
65853;SDS011;52627;48.838;2.402;2023-10-08T15:10:54;8.00;;;2.90;;
65853;SDS011;52627;48.838;2.402;2023-10-08T15:13:21;7.40;;;2.90;;
65853;SDS011;52627;48.838;2.402;2023-10-08T15:15:49;7.60;;;2.50;;
65853;SDS011;52627;48.838;2.402;2023-10-08T15:18:17;6.50;;;2.90;;
65853;SDS011;52627;48.838;2.402;2023-10-08T15:20:46;7.00;;;2.90;;
65853;SDS011;52627;48.838;2.402;2023-10-08T15:23:14;10.40;;;3.30;;
65853;SDS011;52627;48.838;2.402;2023-10-08T15:25:41;9.70;;;3.30;;
65853;SDS011;52627;48.838;2.402;2023-10-08T15:28:09;7.60;;;2.70;;
65853;SDS011;52627;48.838;2.402;2023-10-08T15:30:36;8.10;;;3.00;;
65853;SDS011;52627;48.838;2.402;2023-10-08T15:33:04;8.20;;;3.40;;
65853;SDS011;52627;48.838;2.402;2023-10-08T15:35:34;6.70;;;2.80;;
65853;SDS011;52627;48.838;2.402;2023-10-08T15:38:02;6.20;;;2.60;;
65853;SDS011;52627;48.838;2.402;2023-10-08T15:40:32;9.00;;;2.50;;
65853;SDS011;52627;48.838;2.402;2023-10-08T15:43:01;5.90;;;2.80;;
65853;SDS011;52627;48.838;2.402;2023-10-08T15:45:29;6.90;;;2.90;;
65853;SDS011;52627;48.838;2.402;2023-10-08T15:47:57;10.00;;;3.50;;
65853;SDS011;52627;48.838;2.402;2023-10-08T15:50:25;8.70;;;3.30;;
65853;SDS011;52627;48.838;2.402;2023-10-08T15:52:55;9.60;;;3.30;;
65853;SDS011;52627;48.838;2.402;2023-10-08T15:55:23;8.00;;;2.80;;
65853;SDS011;52627;48.838;2.402;2023-10-08T15:57:53;8.10;;;3.40;;
65853;SDS011;52627;48.838;2.402;2023-10-08T16:00:20;8.30;;;2.70;;
65853;SDS011;52627;48.838;2.402;2023-10-08T16:02:48;8.60;;;2.90;;
65853;SDS011;52627;48.838;2.402;2023-10-08T16:05:16;8.10;;;3.10;;
65853;SDS011;52627;48.838;2.402;2023-10-08T16:07:45;7.70;;;3.10;;
65853;SDS011;52627;48.838;2.402;2023-10-08T16:10:13;8.60;;;3.00;;
65853;SDS011;52627;48.838;2.402;2023-10-08T16:12:41;9.50;;;3.30;;
65853;SDS011;52627;48.838;2.402;2023-10-08T16:15:09;8.80;;;3.30;;
65853;SDS011;52627;48.838;2.402;2023-10-08T16:17:37;10.40;;;3.80;;
65853;SDS011;52627;48.838;2.402;2023-10-08T16:20:07;11.50;;;3.90;;
65853;SDS011;52627;48.838;2.402;2023-10-08T16:22:45;6.70;;;3.10;;
65853;SDS011;52627;48.838;2.402;2023-10-08T16:25:15;11.10;;;3.90;;
65853;SDS011;52627;48.838;2.402;2023-10-08T16:27:52;10.30;;;4.20;;
65853;SDS011;52627;48.838;2.402;2023-10-08T16:30:22;10.30;;;3.60;;
65853;SDS011;52627;48.838;2.402;2023-10-08T16:32:53;9.10;;;5.00;;
65853;SDS011;52627;48.838;2.402;2023-10-08T16:35:22;13.20;;;6.20;;
65853;SDS011;52627;48.838;2.402;2023-10-08T16:37:55;12.80;;;4.90;;
65853;SDS011;52627;48.838;2.402;2023-10-08T16:40:23;10.20;;;4.00;;
65853;SDS011;52627;48.838;2.402;2023-10-08T16:42:50;8.50;;;3.90;;
65853;SDS011;52627;48.838;2.402;2023-10-08T16:45:18;13.00;;;4.40;;
65853;SDS011;52627;48.838;2.402;2023-10-08T16:47:47;10.80;;;4.00;;
65853;SDS011;52627;48.838;2.402;2023-10-08T16:50:15;9.10;;;4.40;;
65853;SDS011;52627;48.838;2.402;2023-10-08T16:52:49;16.40;;;8.00;;
65853;SDS011;52627;48.838;2.402;2023-10-08T16:55:19;23.50;;;10.90;;
65853;SDS011;52627;48.838;2.402;2023-10-08T16:57:46;15.30;;;8.00;;
65853;SDS011;52627;48.838;2.402;2023-10-08T17:00:14;27.60;;;8.00;;
65853;SDS011;52627;48.838;2.402;2023-10-08T17:02:42;11.60;;;5.60;;
65853;SDS011;52627;48.838;2.402;2023-10-08T17:05:10;15.40;;;4.90;;
65853;SDS011;52627;48.838;2.402;2023-10-08T17:07:43;14.30;;;5.50;;
65853;SDS011;52627;48.838;2.402;2023-10-08T17:10:13;14.50;;;5.00;;
65853;SDS011;52627;48.838;2.402;2023-10-08T17:12:40;11.40;;;4.40;;
65853;SDS011;52627;48.838;2.402;2023-10-08T17:15:08;13.20;;;4.50;;
65853;SDS011;52627;48.838;2.402;2023-10-08T17:17:41;18.60;;;5.00;;
65853;SDS011;52627;48.838;2.402;2023-10-08T17:20:09;9.60;;;4.80;;
65853;SDS011;52627;48.838;2.402;2023-10-08T17:22:38;15.10;;;6.00;;
65853;SDS011;52627;48.838;2.402;2023-10-08T17:25:06;25.90;;;13.80;;
65853;SDS011;52627;48.838;2.402;2023-10-08T17:27:34;31.80;;;20.60;;
65853;SDS011;52627;48.838;2.402;2023-10-08T17:30:03;18.30;;;7.40;;
65853;SDS011;52627;48.838;2.402;2023-10-08T17:32:34;17.80;;;5.70;;
65853;SDS011;52627;48.838;2.402;2023-10-08T17:35:03;17.90;;;5.80;;
65853;SDS011;52627;48.838;2.402;2023-10-08T17:37:34;14.50;;;6.00;;
65853;SDS011;52627;48.838;2.402;2023-10-08T17:40:05;13.70;;;5.50;;
65853;SDS011;52627;48.838;2.402;2023-10-08T17:42:39;17.20;;;5.40;;
65853;SDS011;52627;48.838;2.402;2023-10-08T17:45:09;16.80;;;6.40;;
65853;SDS011;52627;48.838;2.402;2023-10-08T17:47:42;17.60;;;5.90;;
65853;SDS011;52627;48.838;2.402;2023-10-08T17:50:11;16.10;;;6.90;;
65853;SDS011;52627;48.838;2.402;2023-10-08T17:52:38;21.20;;;6.50;;
65853;SDS011;52627;48.838;2.402;2023-10-08T17:55:36;20.20;;;7.00;;
65853;SDS011;52627;48.838;2.402;2023-10-08T17:58:04;20.50;;;6.90;;
65853;SDS011;52627;48.838;2.402;2023-10-08T18:00:34;17.00;;;6.80;;
65853;SDS011;52627;48.838;2.402;2023-10-08T18:03:02;14.10;;;6.90;;
65853;SDS011;52627;48.838;2.402;2023-10-08T18:05:30;15.80;;;7.20;;
65853;SDS011;52627;48.838;2.402;2023-10-08T18:07:59;16.20;;;6.90;;
65853;SDS011;52627;48.838;2.402;2023-10-08T18:10:26;17.50;;;7.50;;
65853;SDS011;52627;48.838;2.402;2023-10-08T18:12:55;14.90;;;6.90;;
65853;SDS011;52627;48.838;2.402;2023-10-08T18:15:23;17.80;;;7.00;;
65853;SDS011;52627;48.838;2.402;2023-10-08T18:17:51;20.60;;;8.00;;
65853;SDS011;52627;48.838;2.402;2023-10-08T18:20:22;17.90;;;7.40;;
65853;SDS011;52627;48.838;2.402;2023-10-08T18:23:01;16.00;;;7.30;;
65853;SDS011;52627;48.838;2.402;2023-10-08T18:25:29;17.30;;;7.10;;
65853;SDS011;52627;48.838;2.402;2023-10-08T18:27:57;21.30;;;7.40;;
65853;SDS011;52627;48.838;2.402;2023-10-08T18:30:25;21.70;;;7.40;;
65853;SDS011;52627;48.838;2.402;2023-10-08T18:32:53;17.30;;;7.90;;
65853;SDS011;52627;48.838;2.402;2023-10-08T18:35:22;18.50;;;7.50;;
65853;SDS011;52627;48.838;2.402;2023-10-08T18:37:50;14.40;;;6.90;;
65853;SDS011;52627;48.838;2.402;2023-10-08T18:40:26;18.70;;;8.30;;
65853;SDS011;52627;48.838;2.402;2023-10-08T18:43:06;20.90;;;8.80;;
65853;SDS011;52627;48.838;2.402;2023-10-08T18:45:43;20.60;;;10.50;;
65853;SDS011;52627;48.838;2.402;2023-10-08T18:48:32;20.50;;;9.80;;
65853;SDS011;52627;48.838;2.402;2023-10-08T18:53:49;15.70;;;7.90;;
65853;SDS011;52627;48.838;2.402;2023-10-08T18:56:32;12.90;;;7.50;;
65853;SDS011;52627;48.838;2.402;2023-10-08T18:59:01;15.80;;;6.90;;
65853;SDS011;52627;48.838;2.402;2023-10-08T19:01:28;15.70;;;6.40;;
65853;SDS011;52627;48.838;2.402;2023-10-08T19:03:56;12.80;;;6.40;;
65853;SDS011;52627;48.838;2.402;2023-10-08T19:06:24;19.20;;;11.70;;
65853;SDS011;52627;48.838;2.402;2023-10-08T19:08:51;28.10;;;17.80;;
65853;SDS011;52627;48.838;2.402;2023-10-08T19:11:19;29.80;;;16.80;;
65853;SDS011;52627;48.838;2.402;2023-10-08T19:13:47;18.40;;;10.60;;
65853;SDS011;52627;48.838;2.402;2023-10-08T19:16:14;18.80;;;7.80;;
65853;SDS011;52627;48.838;2.402;2023-10-08T19:18:43;18.20;;;8.40;;
65853;SDS011;52627;48.838;2.402;2023-10-08T19:21:17;14.80;;;8.20;;
65853;SDS011;52627;48.838;2.402;2023-10-08T19:23:45;21.20;;;8.50;;
65853;SDS011;52627;48.838;2.402;2023-10-08T19:26:13;18.10;;;7.90;;
65853;SDS011;52627;48.838;2.402;2023-10-08T19:31:12;17.30;;;8.80;;
65853;SDS011;52627;48.838;2.402;2023-10-08T19:33:42;16.60;;;7.90;;
65853;SDS011;52627;48.838;2.402;2023-10-08T19:36:12;14.70;;;8.20;;
65853;SDS011;52627;48.838;2.402;2023-10-08T19:38:42;20.50;;;9.30;;
65853;SDS011;52627;48.838;2.402;2023-10-08T19:41:16;20.50;;;10.60;;
65853;SDS011;52627;48.838;2.402;2023-10-08T19:43:44;22.60;;;10.90;;
65853;SDS011;52627;48.838;2.402;2023-10-08T19:46:15;21.00;;;11.80;;
65853;SDS011;52627;48.838;2.402;2023-10-08T19:48:49;22.30;;;11.80;;
65853;SDS011;52627;48.838;2.402;2023-10-08T19:51:17;22.40;;;10.80;;
65853;SDS011;52627;48.838;2.402;2023-10-08T19:53:45;21.30;;;10.50;;
65853;SDS011;52627;48.838;2.402;2023-10-08T19:56:18;19.80;;;10.80;;
65853;SDS011;52627;48.838;2.402;2023-10-08T19:58:47;17.20;;;10.00;;
65853;SDS011;52627;48.838;2.402;2023-10-08T20:01:15;20.70;;;9.90;;
65853;SDS011;52627;48.838;2.402;2023-10-08T20:03:44;17.30;;;8.70;;
65853;SDS011;52627;48.838;2.402;2023-10-08T20:06:13;18.40;;;9.00;;
65853;SDS011;52627;48.838;2.402;2023-10-08T20:08:41;16.20;;;9.10;;
65853;SDS011;52627;48.838;2.402;2023-10-08T20:11:08;14.30;;;9.00;;
65853;SDS011;52627;48.838;2.402;2023-10-08T20:13:36;20.90;;;9.10;;
65853;SDS011;52627;48.838;2.402;2023-10-08T20:16:03;18.50;;;8.50;;
65853;SDS011;52627;48.838;2.402;2023-10-08T20:18:35;17.70;;;8.40;;
65853;SDS011;52627;48.838;2.402;2023-10-08T20:21:03;17.00;;;8.50;;
65853;SDS011;52627;48.838;2.402;2023-10-08T20:23:33;17.80;;;8.30;;
65853;SDS011;52627;48.838;2.402;2023-10-08T20:26:14;17.50;;;9.00;;
65853;SDS011;52627;48.838;2.402;2023-10-08T20:28:52;18.20;;;9.00;;
65853;SDS011;52627;48.838;2.402;2023-10-08T20:31:22;17.50;;;8.80;;
65853;SDS011;52627;48.838;2.402;2023-10-08T20:33:51;17.50;;;8.90;;
65853;SDS011;52627;48.838;2.402;2023-10-08T20:36:20;15.20;;;8.70;;
65853;SDS011;52627;48.838;2.402;2023-10-08T20:38:48;14.90;;;8.40;;
65853;SDS011;52627;48.838;2.402;2023-10-08T20:41:18;14.90;;;8.40;;
65853;SDS011;52627;48.838;2.402;2023-10-08T20:43:48;16.40;;;8.30;;
65853;SDS011;52627;48.838;2.402;2023-10-08T20:46:18;16.10;;;9.00;;
65853;SDS011;52627;48.838;2.402;2023-10-08T20:48:47;21.10;;;9.10;;
65853;SDS011;52627;48.838;2.402;2023-10-08T20:51:16;14.10;;;7.90;;
65853;SDS011;52627;48.838;2.402;2023-10-08T20:53:46;17.60;;;7.80;;
65853;SDS011;52627;48.838;2.402;2023-10-08T20:56:14;14.90;;;7.70;;
65853;SDS011;52627;48.838;2.402;2023-10-08T20:58:45;17.40;;;7.90;;
65853;SDS011;52627;48.838;2.402;2023-10-08T21:01:13;14.40;;;7.60;;
65853;SDS011;52627;48.838;2.402;2023-10-08T21:03:45;17.00;;;7.80;;
65853;SDS011;52627;48.838;2.402;2023-10-08T21:06:19;16.10;;;8.40;;
65853;SDS011;52627;48.838;2.402;2023-10-08T21:08:47;17.40;;;7.40;;
65853;SDS011;52627;48.838;2.402;2023-10-08T21:11:15;14.90;;;7.70;;
65853;SDS011;52627;48.838;2.402;2023-10-08T21:13:52;13.30;;;7.30;;
65853;SDS011;52627;48.838;2.402;2023-10-08T21:16:25;12.50;;;7.80;;
65853;SDS011;52627;48.838;2.402;2023-10-08T21:18:53;13.60;;;7.50;;
65853;SDS011;52627;48.838;2.402;2023-10-08T21:21:26;16.70;;;8.60;;
65853;SDS011;52627;48.838;2.402;2023-10-08T21:23:55;14.80;;;8.80;;
65853;SDS011;52627;48.838;2.402;2023-10-08T21:26:25;17.80;;;8.40;;
65853;SDS011;52627;48.838;2.402;2023-10-08T21:28:53;15.30;;;8.10;;
65853;SDS011;52627;48.838;2.402;2023-10-08T21:31:21;15.60;;;8.10;;
65853;SDS011;52627;48.838;2.402;2023-10-08T21:34:05;16.00;;;8.10;;
65853;SDS011;52627;48.838;2.402;2023-10-08T21:36:33;15.90;;;8.20;;
65853;SDS011;52627;48.838;2.402;2023-10-08T21:39:00;14.30;;;7.70;;
65853;SDS011;52627;48.838;2.402;2023-10-08T21:41:36;15.40;;;8.50;;
65853;SDS011;52627;48.838;2.402;2023-10-08T21:44:08;16.00;;;8.70;;
65853;SDS011;52627;48.838;2.402;2023-10-08T21:46:40;16.10;;;8.50;;
65853;SDS011;52627;48.838;2.402;2023-10-08T21:49:08;14.40;;;7.80;;
65853;SDS011;52627;48.838;2.402;2023-10-08T21:51:36;12.20;;;7.40;;
65853;SDS011;52627;48.838;2.402;2023-10-08T21:54:05;12.40;;;7.60;;
65853;SDS011;52627;48.838;2.402;2023-10-08T21:56:34;14.80;;;7.90;;
65853;SDS011;52627;48.838;2.402;2023-10-08T21:59:02;13.80;;;7.40;;
65853;SDS011;52627;48.838;2.402;2023-10-08T22:01:38;13.20;;;7.90;;
65853;SDS011;52627;48.838;2.402;2023-10-08T22:04:08;15.20;;;7.80;;
65853;SDS011;52627;48.838;2.402;2023-10-08T22:06:41;14.90;;;7.90;;
65853;SDS011;52627;48.838;2.402;2023-10-08T22:09:10;12.80;;;7.70;;
65853;SDS011;52627;48.838;2.402;2023-10-08T22:11:43;13.80;;;7.70;;
65853;SDS011;52627;48.838;2.402;2023-10-08T22:14:11;13.20;;;8.10;;
65853;SDS011;52627;48.838;2.402;2023-10-08T22:16:41;15.70;;;8.80;;
65853;SDS011;52627;48.838;2.402;2023-10-08T22:19:09;15.20;;;8.40;;
65853;SDS011;52627;48.838;2.402;2023-10-08T22:21:38;17.20;;;7.90;;
65853;SDS011;52627;48.838;2.402;2023-10-08T22:24:06;19.30;;;8.40;;
65853;SDS011;52627;48.838;2.402;2023-10-08T22:26:40;16.40;;;7.90;;
65853;SDS011;52627;48.838;2.402;2023-10-08T22:29:08;15.70;;;7.70;;
65853;SDS011;52627;48.838;2.402;2023-10-08T22:31:38;18.10;;;8.30;;
65853;SDS011;52627;48.838;2.402;2023-10-08T22:34:13;19.10;;;8.30;;
65853;SDS011;52627;48.838;2.402;2023-10-08T22:36:46;15.20;;;8.10;;
65853;SDS011;52627;48.838;2.402;2023-10-08T22:39:35;14.40;;;7.60;;
65853;SDS011;52627;48.838;2.402;2023-10-08T22:42:03;15.70;;;8.20;;
65853;SDS011;52627;48.838;2.402;2023-10-08T22:44:36;17.80;;;8.20;;
65853;SDS011;52627;48.838;2.402;2023-10-08T22:47:04;16.10;;;8.00;;
65853;SDS011;52627;48.838;2.402;2023-10-08T22:49:37;15.10;;;8.50;;
65853;SDS011;52627;48.838;2.402;2023-10-08T22:52:05;13.80;;;7.90;;
65853;SDS011;52627;48.838;2.402;2023-10-08T22:54:37;16.50;;;7.20;;
65853;SDS011;52627;48.838;2.402;2023-10-08T22:57:04;13.60;;;7.80;;
65853;SDS011;52627;48.838;2.402;2023-10-08T22:59:32;15.80;;;7.80;;
65853;SDS011;52627;48.838;2.402;2023-10-08T23:02:00;14.50;;;7.70;;
65853;SDS011;52627;48.838;2.402;2023-10-08T23:04:30;15.90;;;7.90;;
65853;SDS011;52627;48.838;2.402;2023-10-08T23:07:01;15.30;;;7.60;;
65853;SDS011;52627;48.838;2.402;2023-10-08T23:09:29;15.50;;;7.70;;
65853;SDS011;52627;48.838;2.402;2023-10-08T23:11:59;13.40;;;7.30;;
65853;SDS011;52627;48.838;2.402;2023-10-08T23:14:27;17.30;;;8.50;;
65853;SDS011;52627;48.838;2.402;2023-10-08T23:16:55;15.60;;;7.80;;
65853;SDS011;52627;48.838;2.402;2023-10-08T23:19:24;13.70;;;7.70;;
65853;SDS011;52627;48.838;2.402;2023-10-08T23:21:53;12.60;;;7.60;;
65853;SDS011;52627;48.838;2.402;2023-10-08T23:24:23;16.10;;;8.00;;
65853;SDS011;52627;48.838;2.402;2023-10-08T23:26:51;16.90;;;7.80;;
65853;SDS011;52627;48.838;2.402;2023-10-08T23:29:19;16.70;;;8.40;;
65853;SDS011;52627;48.838;2.402;2023-10-08T23:31:47;14.90;;;7.90;;
65853;SDS011;52627;48.838;2.402;2023-10-08T23:34:16;14.90;;;7.50;;
65853;SDS011;52627;48.838;2.402;2023-10-08T23:36:48;16.90;;;8.40;;
65853;SDS011;52627;48.838;2.402;2023-10-08T23:39:20;15.50;;;8.20;;
65853;SDS011;52627;48.838;2.402;2023-10-08T23:41:53;14.30;;;7.50;;
65853;SDS011;52627;48.838;2.402;2023-10-08T23:44:29;19.30;;;7.20;;
65853;SDS011;52627;48.838;2.402;2023-10-08T23:47:01;13.10;;;8.10;;
65853;SDS011;52627;48.838;2.402;2023-10-08T23:49:34;15.80;;;8.20;;
65853;SDS011;52627;48.838;2.402;2023-10-08T23:52:15;14.80;;;8.10;;
65853;SDS011;52627;48.838;2.402;2023-10-08T23:54:52;18.60;;;8.40;;
65853;SDS011;52627;48.838;2.402;2023-10-08T23:57:27;15.40;;;8.20;;
